Time;durP1;ratioP1;P1;durP2;ratioP2;P2;SDS_P1;SDS_P2;PMS_P1;PMS_P2;Temp;Humidity;BMP_temperature;BMP_pressure;BME280_temperature;BME280_humidity;BME280_pressure;Samples;Min_cycle;Max_cycle;Signal;HPM_P1;HPM_P2
2021/11/23 00:01:43;;;;;;;45.45;24.75;;;;;;;9.57;65.33;100655.28;4363813;32;33059;-89
2021/11/23 00:04:17;;;;;;;42.42;24.10;;;;;;;9.33;65.97;100659.91;4376211;32;32900;-89
2021/11/23 00:06:46;;;;;;;41.42;23.58;;;;;;;9.44;65.64;100665.00;4376116;32;32399;-90
2021/11/23 00:09:14;;;;;;;41.85;24.12;;;;;;;9.69;64.87;100672.47;4375989;32;32549;-89
2021/11/23 00:11:43;;;;;;;47.50;26.75;;;;;;;9.59;65.32;100663.94;4375904;32;33353;-90
2021/11/23 00:14:11;;;;;;;45.63;25.12;;;;;;;9.69;64.94;100668.16;4376182;32;32851;-90
2021/11/23 00:17:00;;;;;;;42.90;23.75;;;;;;;9.31;66.11;100674.66;4378188;32;33094;-89
2021/11/23 00:19:32;;;;;;;42.08;23.05;;;;;;;9.58;65.44;100679.56;4363433;32;33186;-90
2021/11/23 00:22:20;;;;;;;42.70;24.08;;;;;;;9.48;65.41;100691.81;4350907;32;33264;-88
2021/11/23 00:24:49;;;;;;;45.53;24.15;;;;;;;9.15;66.43;100688.72;4375956;32;33055;-89
2021/11/23 00:27:17;;;;;;;42.25;23.62;;;;;;;9.26;66.01;100697.25;4375816;32;32975;-91
2021/11/23 00:29:46;;;;;;;42.15;23.67;;;;;;;9.43;65.54;100699.69;4351320;32;32980;-89
2021/11/23 00:32:16;;;;;;;41.60;22.58;;;;;;;9.29;65.75;100705.03;4363462;32;33382;-90
2021/11/23 00:34:44;;;;;;;40.00;22.10;;;;;;;9.33;65.64;100719.72;4363749;32;33385;-90
2021/11/23 00:37:16;;;;;;;39.97;22.27;;;;;;;9.40;65.00;100712.72;4363585;32;32346;-90
2021/11/23 00:39:44;;;;;;;41.00;22.42;;;;;;;9.44;64.79;100710.94;4363501;32;33996;-89
2021/11/23 00:42:15;;;;;;;43.63;22.17;;;;;;;9.66;64.21;100716.75;4375868;32;33210;-90
2021/11/23 00:44:43;;;;;;;37.53;21.67;;;;;;;9.91;63.34;100721.69;4375745;32;32082;-89
2021/11/23 00:47:32;;;;;;;37.08;21.20;;;;;;;9.79;63.55;100723.53;4354027;32;33353;-90
2021/11/23 00:50:00;;;;;;;38.67;22.52;;;;;;;9.66;63.78;100724.56;4363350;32;32727;-90
2021/11/23 00:52:28;;;;;;;38.88;21.27;;;;;;;9.22;64.84;100721.56;4376088;32;32964;-90
2021/11/23 00:54:58;;;;;;;37.22;21.42;;;;;;;9.13;65.32;100732.03;4363516;32;32725;-90
2021/11/23 00:57:27;;;;;;;39.03;22.77;;;;;;;9.33;64.82;100729.25;4363275;32;32427;-89
2021/11/23 00:59:55;;;;;;;37.58;21.20;;;;;;;9.12;65.43;100736.41;4361962;32;32568;-90
2021/11/23 01:03:04;;;;;;;35.88;20.40;;;;;;;9.16;65.24;100732.00;4363430;32;33224;-91
2021/11/23 01:05:33;;;;;;;35.15;19.70;;;;;;;9.17;64.93;100736.34;4375571;32;32913;-89
2021/11/23 01:08:05;;;;;;;32.78;20.65;;;;;;;9.47;63.71;100742.13;4362969;32;32680;-90
2021/11/23 01:10:35;;;;;;;35.38;19.35;;;;;;;9.03;64.66;100737.31;4375939;32;33784;-90
2021/11/23 01:13:05;;;;;;;31.10;18.08;;;;;;;8.87;65.37;100733.16;4363021;32;33806;-90
2021/11/23 01:15:34;;;;;;;31.85;18.05;;;;;;;9.14;64.37;100731.19;4375377;32;32974;-89
2021/11/23 01:18:04;;;;;;;30.42;17.55;;;;;;;9.04;64.23;100740.81;4375390;32;32604;-90
2021/11/23 01:20:36;;;;;;;30.67;17.30;;;;;;;9.19;63.72;100732.00;4362930;32;33171;-91
2021/11/23 01:23:23;;;;;;;33.85;18.62;;;;;;;9.08;63.92;100731.22;4363186;32;33247;-89
2021/11/23 01:25:57;;;;;;;30.08;17.10;;;;;;;9.00;64.20;100742.56;4363152;32;32843;-89
2021/11/23 01:28:26;;;;;;;27.52;16.40;;;;;;;8.94;64.58;100752.16;4375372;32;32069;-89
2021/11/23 01:30:54;;;;;;;27.27;16.25;;;;;;;9.09;63.78;100739.00;4375346;32;33525;-90
2021/11/23 01:33:24;;;;;;;26.25;14.87;;;;;;;9.09;63.41;100739.00;4375093;32;33208;-89
2021/11/23 01:36:12;;;;;;;23.90;14.55;;;;;;;8.81;64.18;100741.81;4362816;32;33091;-89
2021/11/23 01:38:40;;;;;;;28.12;14.13;;;;;;;9.03;63.33;100739.06;4375901;32;32477;-90
2021/11/23 01:41:09;;;;;;;22.95;13.38;;;;;;;8.96;63.47;100739.97;4376414;32;33163;-89
2021/11/23 01:44:05;;;;;;;23.67;13.77;;;;;;;9.40;62.01;100730.06;4365789;32;32841;-89
2021/11/23 01:46:34;;;;;;;21.10;13.60;;;;;;;9.52;61.47;100735.16;4364692;32;32968;-90
2021/11/23 01:49:07;;;;;;;24.65;13.23;;;;;;;9.18;62.21;100732.88;4351039;32;32100;-90
2021/11/23 01:51:35;;;;;;;21.50;12.60;;;;;;;9.19;61.94;100734.59;4375145;32;33528;-90
2021/11/23 01:54:15;;;;;;;25.20;12.05;;;;;;;9.25;61.96;100739.72;4362654;32;34071;-89
2021/11/23 01:56:44;;;;;;;18.25;11.35;;;;;;;9.34;61.55;100739.63;4375486;32;32921;-90
2021/11/23 01:59:24;;;;;;;18.42;10.27;;;;;;;9.08;61.95;100745.09;4362850;32;33276;-90
2021/11/23 02:01:55;;;;;;;18.23;10.90;;;;;;;9.27;61.16;100743.19;4362439;32;33714;-90
2021/11/23 02:04:32;;;;;;;18.10;10.27;;;;;;;9.33;60.66;100750.94;4362686;32;34033;-90
2021/11/23 02:07:20;;;;;;;16.50;9.85;;;;;;;9.60;59.76;100751.53;4362077;32;32991;-91
2021/11/23 02:09:50;;;;;;;16.05;9.05;;;;;;;9.45;59.77;100754.28;4350332;32;32380;-90
2021/11/23 02:12:18;;;;;;;16.95;9.98;;;;;;;9.37;59.77;100754.34;4376993;32;32399;-89
2021/11/23 02:15:06;;;;;;;16.42;9.38;;;;;;;9.49;59.34;100759.44;4364438;32;33049;-90
2021/11/23 02:17:38;;;;;;;17.05;9.85;;;;;;;9.58;59.05;100755.87;4377464;32;33644;-90
2021/11/23 02:20:18;;;;;;;19.55;9.90;;;;;;;9.48;58.98;100762.94;4377906;32;32450;-91
2021/11/23 02:23:01;;;;;;;16.12;8.77;;;;;;;9.19;59.24;100771.84;4353451;32;32810;-89
2021/11/23 02:25:40;;;;;;;14.25;8.90;;;;;;;9.01;59.58;100769.41;4352802;32;33285;-90
2021/11/23 02:28:27;;;;;;;17.08;9.82;;;;;;;9.03;59.73;100778.91;4353977;32;32435;-91
2021/11/23 02:30:59;;;;;;;15.07;8.77;;;;;;;9.16;59.36;100768.41;4364292;32;33318;-90
2021/11/23 02:33:35;;;;;;;15.55;9.02;;;;;;;8.99;59.80;100777.22;4352743;32;33116;-89
2021/11/23 02:36:43;;;;;;;17.10;9.35;;;;;;;9.13;59.27;100777.09;4364126;32;33795;-89
2021/11/23 02:39:12;;;;;;;14.52;8.48;;;;;;;9.49;58.28;100775.06;4352198;32;32983;-89
2021/11/23 02:41:51;;;;;;;16.50;8.55;;;;;;;9.37;58.51;100772.56;4353589;32;33549;-90
2021/11/23 02:44:42;;;;;;;16.35;9.45;;;;;;;9.43;58.20;100787.25;4366496;32;32646;-90
2021/11/23 02:47:33;;;;;;;17.00;9.35;;;;;;;9.00;59.33;100789.34;4353779;32;33004;-91
2021/11/23 02:50:12;;;;;;;12.13;7.90;;;;;;;9.27;58.59;100782.19;4353971;32;33923;-90
2021/11/23 02:52:49;;;;;;;14.63;8.93;;;;;;;9.26;58.45;100793.47;4364071;32;32295;-90
2021/11/23 02:55:37;;;;;;;14.75;7.93;;;;;;;9.20;58.48;100796.13;4353956;32;33002;-89
2021/11/23 02:58:11;;;;;;;16.48;8.65;;;;;;;9.16;58.34;100795.28;4364774;32;34047;-90
2021/11/23 03:00:40;;;;;;;17.17;8.40;;;;;;;9.05;58.33;100793.66;4351912;32;32787;-90
2021/11/23 03:03:32;;;;;;;15.40;8.68;;;;;;;9.13;57.78;100789.25;4354631;32;32502;-90
2021/11/23 03:06:01;;;;;;;14.50;8.57;;;;;;;8.81;58.51;100788.59;4363836;32;32780;-90
2021/11/23 03:08:34;;;;;;;15.17;9.37;;;;;;;8.87;58.53;100798.12;4377053;32;33026;-90
2021/11/23 03:11:12;;;;;;;14.65;8.43;;;;;;;8.65;58.96;100803.44;4353102;32;33327;-90
2021/11/23 03:13:41;;;;;;;12.57;8.02;;;;;;;8.61;58.76;100793.94;4376822;32;32615;-91
2021/11/23 03:16:13;;;;;;;14.32;7.57;;;;;;;8.64;58.64;100800.84;4377135;32;33285;-90
2021/11/23 03:19:09;;;;;;;14.40;8.02;;;;;;;8.88;57.69;100798.97;4363818;32;32968;-89
2021/11/23 03:21:49;;;;;;;13.75;8.45;;;;;;;8.80;57.67;100799.00;4352393;32;33113;-90
2021/11/23 03:24:19;;;;;;;14.52;8.13;;;;;;;8.72;57.76;100804.25;4352354;32;32431;-90
2021/11/23 03:27:08;;;;;;;14.75;8.07;;;;;;;8.43;58.54;100800.06;4366686;32;32764;-90
2021/11/23 03:30:06;;;;;;;13.40;8.00;;;;;;;8.64;57.94;100806.94;4354896;32;33098;-90
2021/11/23 03:32:56;;;;;;;15.60;7.18;;;;;;;8.36;58.64;100809.63;4378652;32;32914;-91
2021/11/23 03:35:45;;;;;;;14.93;8.63;;;;;;;8.38;58.50;100812.22;4354121;32;32702;-90
2021/11/23 03:38:32;;;;;;;13.82;8.63;;;;;;;8.36;58.53;100816.53;4353715;32;32978;-90
2021/11/23 03:41:39;;;;;;;12.30;7.68;;;;;;;7.95;59.76;100821.03;4355549;32;32633;-90
2021/11/23 03:44:07;;;;;;;17.67;8.30;;;;;;;8.13;58.82;100824.44;4376570;32;32836;-90
2021/11/23 03:47:13;;;;;;;14.25;7.87;;;;;;;8.12;58.73;100822.69;4363875;32;32954;-91
2021/11/23 03:50:01;;;;;;;14.10;7.50;;;;;;;8.63;57.17;100825.12;4353671;32;32426;-91
2021/11/23 03:53:00;;;;;;;13.88;7.57;;;;;;;8.52;57.16;100828.62;4367477;32;33670;-89
2021/11/23 03:55:50;;;;;;;14.40;7.62;;;;;;;8.18;58.07;100836.53;4363633;32;33473;-91
2021/11/23 03:58:58;;;;;;;14.15;7.95;;;;;;;8.32;57.88;100831.28;4356036;32;32745;-90
2021/11/23 04:01:45;;;;;;;16.05;7.85;;;;;;;8.22;57.89;100831.31;4378413;32;32532;-89
2021/11/23 04:04:53;;;;;;;13.10;7.30;;;;;;;8.14;57.93;100833.97;4355701;32;32843;-91
2021/11/23 04:07:23;;;;;;;12.37;7.30;;;;;;;8.32;57.20;100844.28;4351233;32;32893;-90
2021/11/23 04:10:13;;;;;;;13.60;7.05;;;;;;;8.17;57.59;100834.78;4363531;32;32421;-90
2021/11/23 04:13:01;;;;;;;12.02;6.95;;;;;;;8.01;58.22;100835.72;4378221;32;33627;-90
2021/11/23 04:16:09;;;;;;;13.52;7.15;;;;;;;8.32;57.03;100841.69;4347082;32;33226;-90
2021/11/23 04:18:57;;;;;;;13.60;6.93;;;;;;;7.99;57.77;100843.50;4361331;32;33752;-89
2021/11/23 04:21:31;;;;;;;13.07;7.20;;;;;;;8.29;57.05;100849.47;4349594;32;33582;-90
2021/11/23 04:24:09;;;;;;;11.75;7.00;;;;;;;8.04;57.21;100838.28;4359982;32;32690;-90
2021/11/23 04:26:37;;;;;;;14.18;7.70;;;;;;;8.17;57.02;100841.72;4361130;32;33059;-89
2021/11/23 04:29:06;;;;;;;12.40;6.75;;;;;;;8.05;57.30;100844.38;4361381;32;34078;-90
2021/11/23 04:31:55;;;;;;;12.85;7.85;;;;;;;8.44;56.08;100842.47;4361175;32;33945;-89
2021/11/23 04:34:32;;;;;;;13.18;7.30;;;;;;;8.21;56.49;100847.78;4360940;32;33088;-90
2021/11/23 04:37:20;;;;;;;13.05;6.85;;;;;;;8.28;56.29;100855.53;4359018;32;33618;-90
2021/11/23 04:40:28;;;;;;;15.57;7.22;;;;;;;8.29;56.31;100859.84;4348465;32;32877;-89
2021/11/23 04:42:56;;;;;;;12.65;7.50;;;;;;;8.05;57.17;100862.53;4348777;32;33651;-90
2021/11/23 04:46:04;;;;;;;14.52;7.22;;;;;;;7.90;57.38;100859.09;4361112;32;32919;-90
2021/11/23 04:48:34;;;;;;;12.07;6.57;;;;;;;8.38;55.90;100864.16;4361138;32;33354;-90
2021/11/23 04:51:24;;;;;;;12.48;7.75;;;;;;;8.29;55.95;100864.19;4361283;32;34227;-90
2021/11/23 04:53:52;;;;;;;13.15;7.50;;;;;;;8.34;55.55;100865.88;4361906;32;33600;-89
2021/11/23 04:56:29;;;;;;;14.87;8.07;;;;;;;8.17;55.81;100868.53;4360813;32;32570;-91
2021/11/23 04:59:17;;;;;;;12.95;7.62;;;;;;;8.29;55.47;100872.84;4358576;32;33586;-90
2021/11/23 05:02:28;;;;;;;14.48;7.22;;;;;;;8.20;55.57;100878.06;4383225;32;32748;-90
2021/11/23 05:05:35;;;;;;;13.77;7.47;;;;;;;7.67;56.95;100878.16;4369835;32;32127;-89
2021/11/23 05:08:46;;;;;;;16.35;8.50;;;;;;;8.11;55.71;100878.97;4339891;33;33478;-90
2021/11/23 05:11:36;;;;;;;16.15;8.07;;;;;;;7.83;56.36;100886.78;4343949;33;33294;-89
2021/11/23 05:14:32;;;;;;;12.95;7.53;;;;;;;7.93;56.03;100892.81;4377441;32;33369;-90
2021/11/23 05:17:19;;;;;;;13.10;7.60;;;;;;;7.45;57.30;100903.22;4368338;32;32128;-89
2021/11/23 05:19:48;;;;;;;14.45;7.75;;;;;;;7.44;57.40;100903.22;4378281;32;32501;-90
2021/11/23 05:22:36;;;;;;;14.45;7.82;;;;;;;7.41;56.91;100909.28;4391706;32;33745;-90
2021/11/23 05:25:24;;;;;;;14.73;7.62;;;;;;;7.87;55.62;100905.81;4403585;32;33116;-90
2021/11/23 05:27:51;;;;;;;14.55;7.68;;;;;;;7.68;55.84;100912.75;4393284;32;32458;-90
2021/11/23 05:30:19;;;;;;;13.43;7.40;;;;;;;7.93;55.24;100915.31;4392992;32;33901;-89
2021/11/23 05:32:47;;;;;;;13.50;7.47;;;;;;;8.01;54.81;100923.97;4393114;32;33243;-91
2021/11/23 05:35:21;;;;;;;14.45;7.55;;;;;;;8.33;53.59;100921.28;4406103;32;33663;-88
2021/11/23 05:38:10;;;;;;;14.77;7.70;;;;;;;7.75;55.07;100922.28;4402775;32;32351;-90
2021/11/23 05:40:38;;;;;;;13.57;7.70;;;;;;;7.40;56.08;100924.84;4380516;32;33578;-90
2021/11/23 05:43:31;;;;;;;15.57;7.50;;;;;;;7.64;55.49;100929.16;4395496;32;33412;-88
2021/11/23 05:46:01;;;;;;;14.70;7.57;;;;;;;7.52;55.39;100928.31;4405558;32;33034;-88
2021/11/23 05:48:37;;;;;;;13.18;7.37;;;;;;;7.87;54.56;100926.59;4395185;32;32422;-88
2021/11/23 05:51:07;;;;;;;13.73;7.68;;;;;;;7.93;54.18;100925.72;4394944;32;32623;-91
2021/11/23 05:53:39;;;;;;;13.57;7.80;;;;;;;7.92;53.98;100927.41;4395632;32;33287;-90
2021/11/23 05:56:08;;;;;;;13.73;7.72;;;;;;;7.81;54.05;100929.19;4419698;32;32606;-91
2021/11/23 05:58:54;;;;;;;14.75;7.85;;;;;;;7.38;55.52;100935.22;4341080;33;32254;-86
2021/11/23 06:01:23;;;;;;;15.45;8.10;;;;;;;6.99;56.31;100934.25;4332282;33;33005;-86
2021/11/23 06:03:53;;;;;;;14.55;7.60;;;;;;;7.25;55.50;100943.84;4334737;33;32970;-86
2021/11/23 06:06:24;;;;;;;13.57;7.97;;;;;;;7.18;55.76;100945.56;4333952;33;33793;-86
2021/11/23 06:08:54;;;;;;;15.07;8.02;;;;;;;7.00;56.08;100948.94;4345888;33;33416;-85
2021/11/23 06:11:22;;;;;;;18.85;9.88;;;;;;;6.85;56.76;100952.34;4334162;33;33332;-85
2021/11/23 06:13:50;;;;;;;13.73;8.02;;;;;;;7.07;55.96;100955.87;4345813;33;33504;-87
2021/11/23 06:16:18;;;;;;;23.42;12.50;;;;;;;7.27;55.28;100960.25;4333887;33;34091;-85
2021/11/23 06:18:46;;;;;;;19.60;11.05;;;;;;;6.89;56.44;100967.06;4345583;33;33987;-86
2021/11/23 06:21:14;;;;;;;15.93;8.25;;;;;;;7.15;55.69;100974.03;4345874;33;32993;-85
2021/11/23 06:23:43;;;;;;;16.80;8.10;;;;;;;7.38;54.92;100981.88;4333895;33;33403;-85
2021/11/23 06:26:13;;;;;;;14.13;7.82;;;;;;;7.58;54.15;100981.91;4338711;33;33071;-86
2021/11/23 06:28:41;;;;;;;16.73;8.13;;;;;;;7.41;54.61;100984.47;4344945;33;33112;-85
2021/11/23 06:31:10;;;;;;;16.05;8.38;;;;;;;7.38;54.39;100989.66;4333394;33;34077;-86
2021/11/23 06:33:38;;;;;;;17.45;9.50;;;;;;;7.41;54.19;100989.66;4333605;33;33062;-85
2021/11/23 06:36:06;;;;;;;16.98;9.80;;;;;;;7.44;54.26;101001.78;4334090;33;33749;-90
2021/11/23 06:38:38;;;;;;;24.83;14.15;;;;;;;7.37;54.63;100998.31;4333708;33;32877;-85
2021/11/23 06:41:06;;;;;;;16.60;9.60;;;;;;;7.56;54.18;101000.94;4319953;33;34135;-86
2021/11/23 06:43:34;;;;;;;13.57;7.55;;;;;;;7.55;53.68;100992.25;4331181;33;33962;-86
2021/11/23 06:46:03;;;;;;;13.98;7.97;;;;;;;7.53;53.72;101006.97;4331398;33;33044;-89
2021/11/23 06:48:31;;;;;;;18.55;9.35;;;;;;;7.68;53.22;101012.19;4331336;33;32333;-84
2021/11/23 06:50:59;;;;;;;24.15;13.57;;;;;;;7.56;53.92;101021.69;4332335;33;33409;-85
2021/11/23 06:53:29;;;;;;;18.17;10.40;;;;;;;7.62;53.79;101025.16;4333031;33;33538;-87
2021/11/23 06:56:00;;;;;;;19.15;10.63;;;;;;;7.81;53.24;101025.19;4333981;33;32580;-86
2021/11/23 06:58:29;;;;;;;17.92;9.98;;;;;;;7.65;53.65;101032.94;4355963;32;32418;-85
2021/11/23 07:00:57;;;;;;;15.35;8.50;;;;;;;7.67;53.22;101033.81;4362952;32;33077;-85
2021/11/23 07:03:26;;;;;;;18.92;9.13;;;;;;;7.76;52.95;101035.53;4360417;32;33920;-87
2021/11/23 07:05:56;;;;;;;15.75;8.35;;;;;;;7.30;54.14;101043.19;4360705;32;33178;-86
2021/11/23 07:08:26;;;;;;;16.10;8.43;;;;;;;7.75;52.74;101038.13;4362160;32;32040;-86
2021/11/23 07:10:59;;;;;;;16.15;7.90;;;;;;;7.48;53.80;101045.84;4361684;32;32768;-86
2021/11/23 07:13:28;;;;;;;16.27;8.43;;;;;;;7.57;53.33;101041.56;4361601;32;33519;-86
2021/11/23 07:15:55;;;;;;;16.80;8.48;;;;;;;7.76;52.81;101042.47;4362337;32;34064;-85
2021/11/23 07:18:24;;;;;;;16.10;9.70;;;;;;;7.53;53.16;101045.88;4364404;32;32437;-85
2021/11/23 07:20:54;;;;;;;19.58;9.65;;;;;;;7.24;54.07;101048.38;4363520;32;33722;-85
2021/11/23 07:23:25;;;;;;;14.95;8.82;;;;;;;7.39;53.92;101047.56;4362008;32;34911;-85
2021/11/23 07:25:53;;;;;;;17.20;8.52;;;;;;;7.55;52.96;101036.34;4357473;32;33546;-86
2021/11/23 07:28:22;;;;;;;16.37;8.95;;;;;;;7.38;53.58;101045.81;4370005;32;32663;-85
2021/11/23 07:30:54;;;;;;;20.73;8.93;;;;;;;7.64;52.68;101043.31;4358115;32;33073;-86
2021/11/23 07:33:23;;;;;;;17.48;9.02;;;;;;;7.64;52.58;101048.50;4372670;32;32995;-90
2021/11/23 07:35:52;;;;;;;18.98;10.52;;;;;;;7.71;52.58;101052.81;4360902;32;32623;-84
2021/11/23 07:38:20;;;;;;;17.42;8.98;;;;;;;7.86;51.87;101049.41;4335548;32;32352;-85
2021/11/23 07:40:48;;;;;;;19.00;10.80;;;;;;;8.00;51.10;101052.88;4353793;32;33422;-86
2021/11/23 07:43:16;;;;;;;16.25;10.50;;;;;;;7.69;52.04;101054.56;4344882;33;33617;-84
2021/11/23 07:45:44;;;;;;;17.02;9.35;;;;;;;7.94;51.49;101058.06;4353560;32;32553;-84
2021/11/23 07:48:15;;;;;;;17.40;9.25;;;;;;;7.82;51.51;101061.50;4359782;32;32366;-84
2021/11/23 07:50:43;;;;;;;17.58;9.30;;;;;;;8.28;50.47;101060.69;4346775;32;33495;-84
2021/11/23 07:53:11;;;;;;;19.10;10.18;;;;;;;8.50;49.81;101063.28;4357050;32;32963;-84
2021/11/23 07:55:40;;;;;;;16.95;9.95;;;;;;;8.15;50.33;101077.09;4356626;32;32463;-84
2021/11/23 07:58:09;;;;;;;20.33;9.70;;;;;;;8.32;50.02;101080.59;4356781;32;32667;-85
2021/11/23 08:00:37;;;;;;;16.30;9.60;;;;;;;8.44;49.75;101074.53;4359474;32;33060;-85
2021/11/23 08:03:09;;;;;;;17.15;9.98;;;;;;;8.31;49.76;101081.44;4358945;32;34436;-84
2021/11/23 08:05:38;;;;;;;17.87;9.57;;;;;;;7.90;50.82;101077.09;4356602;32;33569;-84
2021/11/23 08:08:14;;;;;;;16.87;9.60;;;;;;;7.99;50.96;101074.50;4356578;32;33370;-84
2021/11/23 08:10:42;;;;;;;19.10;9.65;;;;;;;8.18;50.39;101074.53;4345096;33;34676;-84
2021/11/23 08:13:11;;;;;;;20.85;10.65;;;;;;;7.67;51.71;101070.13;4357414;32;33865;-84
2021/11/23 08:15:40;;;;;;;20.02;10.02;;;;;;;7.83;51.52;101071.03;4357466;32;32966;-84
2021/11/23 08:18:09;;;;;;;16.75;10.10;;;;;;;7.80;51.60;101080.53;4357369;32;32984;-84
2021/11/23 08:20:38;;;;;;;18.77;11.35;;;;;;;7.91;51.35;101084.00;4344933;33;33905;-84
2021/11/23 08:23:06;;;;;;;16.48;9.85;;;;;;;8.09;50.95;101087.50;4357671;32;32965;-84
2021/11/23 08:25:34;;;;;;;19.20;9.68;;;;;;;8.36;50.22;101087.50;4357039;32;34214;-85
2021/11/23 08:28:03;;;;;;;17.65;10.32;;;;;;;8.43;50.00;101097.87;4361581;32;32449;-85
2021/11/23 08:30:32;;;;;;;19.95;12.23;;;;;;;8.68;49.25;101094.44;4360562;32;33552;-86
2021/11/23 08:33:06;;;;;;;17.75;10.70;;;;;;;8.57;49.54;101101.37;4361902;32;33127;-83
2021/11/23 08:35:35;;;;;;;17.15;10.18;;;;;;;8.48;49.26;101096.16;4362814;32;33001;-86
2021/11/23 08:38:04;;;;;;;17.35;10.15;;;;;;;8.67;48.52;101097.03;4361383;32;33000;-86
2021/11/23 08:40:32;;;;;;;17.50;10.10;;;;;;;8.86;47.94;101097.87;4356859;32;33988;-86
2021/11/23 08:43:00;;;;;;;18.98;10.32;;;;;;;8.49;48.72;101105.69;4351133;32;173936;-86
2021/11/23 08:45:29;;;;;;;18.80;10.95;;;;;;;8.46;48.98;101105.72;4357778;32;33780;-86
2021/11/23 08:47:57;;;;;;;16.80;10.25;;;;;;;8.40;49.38;101111.72;4357498;32;33741;-86
2021/11/23 08:50:26;;;;;;;17.83;11.35;;;;;;;8.39;49.27;101123.00;4344901;33;34233;-87
2021/11/23 08:52:57;;;;;;;20.12;10.88;;;;;;;8.61;49.00;101131.66;4357487;32;33238;-85
2021/11/23 08:55:27;;;;;;;19.08;11.18;;;;;;;8.91;48.11;101131.63;4345723;32;34733;-85
2021/11/23 08:57:55;;;;;;;16.75;10.23;;;;;;;8.75;48.29;101135.97;4342525;32;33353;-85
2021/11/23 09:00:24;;;;;;;18.20;10.73;;;;;;;8.45;49.21;101143.78;4366965;32;32412;-85
2021/11/23 09:03:00;;;;;;;18.20;11.05;;;;;;;8.47;49.14;101131.69;4345254;32;33102;-84
2021/11/23 09:05:32;;;;;;;18.50;10.90;;;;;;;8.36;49.24;101139.44;4346991;32;33346;-84
2021/11/23 09:08:05;;;;;;;17.05;9.52;;;;;;;8.72;48.39;101136.00;4334477;33;33634;-86
2021/11/23 09:10:37;;;;;;;17.85;10.80;;;;;;;8.79;48.33;101138.59;4332619;32;32762;-85
2021/11/23 09:13:08;;;;;;;18.45;10.07;;;;;;;8.74;48.65;101142.06;4329035;33;33049;-85
2021/11/23 09:15:36;;;;;;;15.15;9.55;;;;;;;8.83;48.34;101142.06;4342385;33;32616;-85
2021/11/23 09:18:06;;;;;;;18.90;10.23;;;;;;;8.77;48.46;101153.31;4342583;33;32752;-86
2021/11/23 09:20:36;;;;;;;17.23;9.80;;;;;;;8.71;48.48;101148.13;4353159;32;33160;-85
2021/11/23 09:23:08;;;;;;;14.35;9.38;;;;;;;8.86;48.04;101142.91;4342909;33;33379;-85
2021/11/23 09:25:39;;;;;;;18.65;9.70;;;;;;;8.92;47.88;101147.25;4354158;32;32755;-85
2021/11/23 09:28:08;;;;;;;16.90;9.80;;;;;;;8.78;47.81;101149.00;4337362;33;34302;-85
2021/11/23 09:30:39;;;;;;;22.33;11.50;;;;;;;8.80;48.24;101148.13;4338696;32;32419;-86
2021/11/23 09:33:08;;;;;;;16.92;11.00;;;;;;;8.80;48.38;101148.13;4353211;32;34001;-87
2021/11/23 09:35:37;;;;;;;17.52;10.25;;;;;;;9.23;47.79;101149.78;4349948;32;34182;-86
2021/11/23 09:38:06;;;;;;;17.10;9.45;;;;;;;9.21;47.68;101143.69;4349065;32;32610;-86
2021/11/23 09:40:35;;;;;;;16.55;10.30;;;;;;;9.36;47.53;101142.81;4348863;32;34365;-86
2021/11/23 09:43:04;;;;;;;16.40;9.93;;;;;;;9.72;45.59;101142.63;4355839;32;33903;-86
2021/11/23 09:45:37;;;;;;;14.63;8.90;;;;;;;9.88;45.44;101146.03;4344391;32;33185;-86
2021/11/23 09:48:06;;;;;;;15.48;8.93;;;;;;;10.03;44.33;101153.75;4342929;33;33604;-85
2021/11/23 09:50:42;;;;;;;16.25;10.00;;;;;;;10.34;43.58;101150.94;4359418;32;32843;-85
2021/11/23 09:53:11;;;;;;;17.48;10.18;;;;;;;10.55;43.69;101144.72;4340831;33;34291;-86
2021/11/23 09:55:40;;;;;;;15.88;10.35;;;;;;;10.81;43.17;101147.09;4345808;32;33001;-88
2021/11/23 09:58:11;;;;;;;16.73;9.15;;;;;;;10.80;42.87;101150.59;4347123;32;33798;-89
2021/11/23 10:00:45;;;;;;;19.83;9.88;;;;;;;11.06;42.53;101146.00;4347215;32;33514;-88
2021/11/23 10:03:25;;;;;;;15.30;9.15;;;;;;;11.00;42.37;101139.94;4343507;32;33743;-88
2021/11/23 10:06:11;;;;;;;13.05;8.27;;;;;;;10.91;42.01;101134.84;4339091;33;33136;-87
2021/11/23 10:08:42;;;;;;;13.57;8.68;;;;;;;10.86;42.19;101128.78;4356038;32;34173;-87
2021/11/23 10:11:21;;;;;;;13.38;9.35;;;;;;;11.23;41.31;101130.16;4345369;32;32656;-88
2021/11/23 10:13:55;;;;;;;16.02;8.48;;;;;;;11.42;40.36;101125.56;4345119;33;33928;-87
2021/11/23 10:16:24;;;;;;;13.20;8.05;;;;;;;11.93;39.00;101115.31;4332947;33;32867;-87
2021/11/23 10:19:14;;;;;;;13.95;8.50;;;;;;;11.85;38.63;101120.66;4351254;32;32478;-87
2021/11/23 10:21:51;;;;;;;14.45;8.18;;;;;;;11.87;38.32;101107.56;4357022;32;33837;-88
2021/11/23 10:24:22;;;;;;;13.40;8.52;;;;;;;12.09;37.45;101107.31;4344643;33;34305;-88
2021/11/23 10:26:56;;;;;;;12.55;7.50;;;;;;;12.19;37.01;101094.06;4346252;32;32472;-88
2021/11/23 10:29:27;;;;;;;15.60;8.85;;;;;;;12.26;36.93;101094.84;4328954;33;32466;-87
2021/11/23 10:31:55;;;;;;;15.60;7.97;;;;;;;12.16;36.72;101095.84;4334636;32;32884;-88
2021/11/23 10:34:33;;;;;;;12.05;7.25;;;;;;;12.05;37.35;101089.97;4348034;32;32994;-88
2021/11/23 10:37:02;;;;;;;11.50;7.62;;;;;;;12.43;36.54;101089.31;4347856;32;33679;-87
2021/11/23 10:39:51;;;;;;;13.98;8.27;;;;;;;12.73;35.87;101083.56;4336998;33;33205;-88
2021/11/23 10:42:31;;;;;;;11.35;7.22;;;;;;;12.73;36.02;101084.44;4347503;32;32591;-88
2021/11/23 10:45:06;;;;;;;12.27;7.82;;;;;;;12.94;35.54;101075.31;4347425;32;32995;-88
2021/11/23 10:47:37;;;;;;;12.50;7.30;;;;;;;13.02;35.03;101077.78;4345428;32;33391;-87
2021/11/23 10:50:10;;;;;;;12.35;6.68;;;;;;;13.14;34.53;101074.06;4371156;32;32540;-87
2021/11/23 10:52:41;;;;;;;12.90;7.83;;;;;;;13.13;34.33;101077.56;4347121;32;33729;-88
2021/11/23 10:55:23;;;;;;;12.85;7.70;;;;;;;13.26;33.83;101070.34;4347088;33;33362;-89
2021/11/23 10:57:54;;;;;;;10.95;6.40;;;;;;;13.21;33.56;101083.50;4336506;32;32827;-88
2021/11/23 11:00:24;;;;;;;11.30;6.93;;;;;;;13.22;33.86;101076.53;4369219;32;31963;-88
2021/11/23 11:02:59;;;;;;;12.75;7.60;;;;;;;13.44;33.67;101079.56;4372082;32;32831;-90
2021/11/23 11:05:32;;;;;;;12.35;6.45;;;;;;;13.48;33.73;101078.59;4347770;32;33561;-88
2021/11/23 11:08:02;;;;;;;9.15;6.28;;;;;;;13.47;33.22;101077.75;4348231;33;32701;-88
2021/11/23 11:10:38;;;;;;;11.05;6.25;;;;;;;13.51;33.09;101073.31;4347240;33;33359;-84
2021/11/23 11:13:09;;;;;;;12.87;6.87;;;;;;;13.31;33.42;101073.72;4348048;33;33607;-84
2021/11/23 11:15:44;;;;;;;10.15;5.82;;;;;;;13.51;33.28;101073.31;4335460;33;34046;-86
2021/11/23 11:18:13;;;;;;;14.05;6.85;;;;;;;13.26;33.65;101065.94;4340441;32;32609;-85
2021/11/23 11:20:45;;;;;;;13.60;6.45;;;;;;;13.29;33.74;101063.25;4333209;33;34345;-85
2021/11/23 11:23:17;;;;;;;9.73;6.10;;;;;;;13.05;33.65;101058.56;4346179;33;32746;-84
2021/11/23 11:28:38;;;;;;;9.70;5.03;;;;;;;13.03;33.36;101053.34;4346391;33;33362;-85
2021/11/23 11:31:34;;;;;;;12.23;5.40;;;;;;;13.39;30.95;101057.87;4354726;32;32902;-86
2021/11/23 11:34:26;;;;;;;10.25;4.22;;;;;;;13.65;31.15;101058.19;4343089;33;32923;-86
2021/11/23 11:37:16;;;;;;;10.82;4.70;;;;;;;13.49;31.15;101056.78;4330672;33;33628;-84
2021/11/23 11:39:54;;;;;;;9.13;4.85;;;;;;;13.67;30.27;101053.75;4345125;32;33648;-84
2021/11/23 11:42:25;;;;;;;10.18;5.20;;;;;;;13.55;31.00;101058.38;4336742;33;33611;-85
2021/11/23 11:44:54;;;;;;;7.97;4.47;;;;;;;13.34;31.95;101061.41;4339119;33;33513;-85
2021/11/23 11:47:31;;;;;;;9.23;5.78;;;;;;;13.73;31.40;101057.97;4357492;32;32900;-84
2021/11/23 11:50:07;;;;;;;12.82;4.68;;;;;;;13.66;31.48;101062.50;4355709;32;32848;-84
2021/11/23 11:52:59;;;;;;;13.00;4.97;;;;;;;13.89;31.29;101062.88;4344476;33;33134;-85
2021/11/23 11:55:28;;;;;;;12.77;4.95;;;;;;;14.11;31.45;101061.44;4344418;33;33784;-84
2021/11/23 11:58:00;;;;;;;10.18;4.40;;;;;;;13.86;31.40;101058.56;4332961;33;33138;-85
2021/11/23 12:00:33;;;;;;;12.75;5.28;;;;;;;13.80;31.20;101066.56;4357532;32;33222;-86
2021/11/23 12:03:07;;;;;;;9.13;4.90;;;;;;;13.81;31.25;101052.56;4342302;33;33445;-84